Time;durP1;ratioP1;P1;durP2;ratioP2;P2;SDS_P1;SDS_P2;PMS_P1;PMS_P2;Temp;Humidity;BMP_temperature;BMP_pressure;BME280_temperature;BME280_humidity;BME280_pressure;Samples;Min_cycle;Max_cycle;Signal;HPM_P1;HPM_P2
2023/06/09 00:00:55;;;;;;;7.75;4.43;;;;;;;-145.70;100.00;63560.63;5022938;28;20048;-64
2023/06/09 00:03:21;;;;;;;8.00;4.32;;;;;;;-145.70;100.00;63560.63;5010881;28;20052;-65
2023/06/09 00:05:50;;;;;;;7.57;4.07;;;;;;;-145.70;100.00;63560.63;5014396;28;20259;-64
2023/06/09 00:08:18;;;;;;;8.40;4.60;;;;;;;-145.70;100.00;63560.63;5012466;28;20029;-63
2023/06/09 00:10:43;;;;;;;7.97;4.00;;;;;;;-145.70;100.00;63560.63;5013894;28;20021;-65
2023/06/09 00:13:09;;;;;;;6.75;4.32;;;;;;;-145.70;100.00;63560.63;4998510;28;20087;-64
2023/06/09 00:15:35;;;;;;;8.98;4.20;;;;;;;-145.70;100.00;63560.63;5028728;28;20627;-64
2023/06/09 00:18:02;;;;;;;7.35;4.20;;;;;;;-145.70;100.00;63560.63;5017902;28;20164;-63
2023/06/09 00:20:33;;;;;;;7.20;4.00;;;;;;;-145.70;100.00;63560.63;5002895;28;20030;-63
2023/06/09 00:22:59;;;;;;;7.47;4.28;;;;;;;-145.70;100.00;63560.63;5015105;28;20028;-64
2023/06/09 00:25:25;;;;;;;6.28;3.85;;;;;;;-145.70;100.00;63560.63;5011085;28;20028;-64
2023/06/09 00:27:52;;;;;;;5.82;4.00;;;;;;;-145.70;100.00;63560.63;5031763;28;20749;-63
2023/06/09 00:30:21;;;;;;;6.53;4.22;;;;;;;-145.70;100.00;63560.63;5013169;28;20760;-63
2023/06/09 00:32:49;;;;;;;8.35;4.10;;;;;;;-145.70;100.00;63560.63;5024707;28;20029;-60
2023/06/09 00:35:14;;;;;;;5.93;3.85;;;;;;;-145.70;100.00;63560.63;4996322;28;20029;-63
2023/06/09 00:37:40;;;;;;;7.05;4.18;;;;;;;-145.70;100.00;63560.63;5030905;28;20036;-64
2023/06/09 00:40:07;;;;;;;7.10;3.97;;;;;;;-145.70;100.00;63560.63;5023295;28;20093;-63
2023/06/09 00:42:33;;;;;;;7.03;3.70;;;;;;;-145.70;100.00;63560.63;5010295;28;20080;-64
2023/06/09 00:44:59;;;;;;;6.20;3.70;;;;;;;-145.70;100.00;63560.63;5013812;28;20086;-63
2023/06/09 00:47:25;;;;;;;6.47;3.90;;;;;;;-145.70;100.00;63560.63;5028971;28;20443;-63
2023/06/09 00:49:54;;;;;;;6.10;3.58;;;;;;;-145.70;100.00;63560.63;5028761;28;20052;-63
2023/06/09 00:52:22;;;;;;;8.13;3.80;;;;;;;-145.70;100.00;63560.63;5010718;28;20028;-63
2023/06/09 00:54:48;;;;;;;6.15;4.03;;;;;;;-145.70;100.00;63560.63;5013844;28;20050;-63
2023/06/09 00:57:13;;;;;;;6.20;3.60;;;;;;;-145.70;100.00;63560.63;5032640;28;20378;-65
2023/06/09 00:59:39;;;;;;;6.13;3.80;;;;;;;-145.70;100.00;63560.63;5012438;28;20034;-63
2023/06/09 01:02:08;;;;;;;5.80;3.20;;;;;;;-145.70;100.00;63560.63;5016652;28;20025;-64
2023/06/09 01:04:35;;;;;;;6.53;3.45;;;;;;;-145.70;100.00;63560.63;5028430;28;20025;-64
2023/06/09 01:07:12;;;;;;;6.38;3.35;;;;;;;-145.70;100.00;63560.63;5013652;28;20061;-64
2023/06/09 01:10:04;;;;;;;8.43;3.75;;;;;;;-145.70;100.00;63560.63;5014669;28;20032;-64
2023/06/09 01:12:55;;;;;;;6.63;3.85;;;;;;;-145.70;100.00;63560.63;5001748;28;20048;-63
2023/06/09 01:15:23;;;;;;;6.20;3.55;;;;;;;-145.70;100.00;63560.63;5025566;28;20017;-63
2023/06/09 01:17:55;;;;;;;6.07;3.33;;;;;;;-145.70;100.00;63560.63;5020796;28;20087;-63
2023/06/09 01:20:31;;;;;;;6.38;3.35;;;;;;;-145.70;100.00;63560.63;5024596;28;20049;-63
2023/06/09 01:23:08;;;;;;;8.35;3.60;;;;;;;-145.70;100.00;63560.63;5000708;28;20024;-64
2023/06/09 01:25:38;;;;;;;6.03;3.50;;;;;;;-145.70;100.00;63560.63;5029549;28;20060;-64
2023/06/09 01:28:06;;;;;;;7.05;3.67;;;;;;;-145.70;100.00;63560.63;5019664;28;20017;-64
2023/06/09 01:30:36;;;;;;;8.25;3.50;;;;;;;-145.70;100.00;63560.63;5012526;28;20017;-63
2023/06/09 01:33:09;;;;;;;5.60;3.17;;;;;;;-145.70;100.00;63560.63;5007171;28;20052;-63
2023/06/09 01:35:38;;;;;;;6.30;3.30;;;;;;;-145.70;100.00;63560.63;5011880;28;20645;-63
2023/06/09 01:38:06;;;;;;;7.07;3.78;;;;;;;-145.70;100.00;63560.63;5025577;28;20025;-62
2023/06/09 01:40:31;;;;;;;5.50;3.28;;;;;;;-145.70;100.00;63560.63;5030578;28;20025;-62
2023/06/09 01:43:01;;;;;;;6.40;3.38;;;;;;;-145.70;100.00;63560.63;5010818;28;20040;-64
2023/06/09 01:45:27;;;;;;;6.38;3.47;;;;;;;-145.70;100.00;63560.63;5017858;28;20363;-65
2023/06/09 01:47:53;;;;;;;6.10;3.78;;;;;;;-145.70;100.00;63560.63;5008774;28;20044;-63
2023/06/09 01:50:52;;;;;;;6.13;3.53;;;;;;;-145.70;100.00;63560.63;5012400;28;20064;-62
2023/06/09 01:53:22;;;;;;;7.22;4.00;;;;;;;-145.70;100.00;63560.63;5006354;28;20071;-65
2023/06/09 01:55:55;;;;;;;6.32;3.80;;;;;;;-145.70;100.00;63560.63;5015042;28;20045;-62
2023/06/09 01:58:28;;;;;;;7.72;3.60;;;;;;;-145.70;100.00;63560.63;4993954;28;20041;-63
2023/06/09 02:00:54;;;;;;;6.45;3.42;;;;;;;-145.70;100.00;63560.63;4993528;28;20025;-63
2023/06/09 02:03:25;;;;;;;5.63;3.13;;;;;;;-145.70;100.00;63560.63;4995784;28;20038;-63
2023/06/09 02:05:53;;;;;;;5.75;3.63;;;;;;;-145.70;100.00;63560.63;5005932;28;20045;-64
2023/06/09 02:08:19;;;;;;;5.82;3.35;;;;;;;-145.70;100.00;63560.63;5026901;28;20021;-62
2023/06/09 02:10:47;;;;;;;6.60;3.47;;;;;;;-145.70;100.00;63560.63;4986092;28;20029;-63
2023/06/09 02:13:13;;;;;;;5.50;3.38;;;;;;;-145.70;100.00;63560.63;5030788;28;20040;-63
2023/06/09 02:15:41;;;;;;;8.13;3.80;;;;;;;-145.70;100.00;63560.63;5004147;28;20032;-66
2023/06/09 02:18:07;;;;;;;6.22;3.80;;;;;;;-145.70;100.00;63560.63;5024358;28;20029;-63
2023/06/09 02:20:33;;;;;;;7.53;3.63;;;;;;;-145.70;100.00;63560.63;4989586;28;20106;-63
2023/06/09 02:22:58;;;;;;;5.65;3.45;;;;;;;-145.70;100.00;63560.63;5033100;28;20720;-63
2023/06/09 02:25:28;;;;;;;5.93;3.58;;;;;;;-145.70;100.00;63560.63;5004802;28;20590;-64
2023/06/09 02:27:53;;;;;;;5.65;3.55;;;;;;;-145.70;100.00;63560.63;5022317;28;20036;-63
2023/06/09 02:30:24;;;;;;;5.82;3.50;;;;;;;-145.70;100.00;63560.63;5013157;28;20029;-63
2023/06/09 02:32:49;;;;;;;5.70;3.13;;;;;;;-145.70;100.00;63560.63;5018843;28;20120;-64
2023/06/09 02:35:14;;;;;;;6.10;3.50;;;;;;;-145.70;100.00;63560.63;5025460;28;20021;-64
2023/06/09 02:37:45;;;;;;;6.65;3.67;;;;;;;-145.70;100.00;63560.63;4989434;28;20029;-65
2023/06/09 02:40:12;;;;;;;5.57;3.33;;;;;;;-145.70;100.00;63560.63;5013382;28;20025;-64
2023/06/09 02:42:38;;;;;;;6.43;3.47;;;;;;;-145.70;100.00;63560.63;5010621;28;20032;-63
2023/06/09 02:45:05;;;;;;;6.82;4.03;;;;;;;-145.70;100.00;63560.63;5030357;28;20020;-62
2023/06/09 02:47:30;;;;;;;7.15;3.40;;;;;;;-145.70;100.00;63560.63;5013767;28;20682;-65
2023/06/09 02:49:56;;;;;;;5.53;3.22;;;;;;;-145.70;100.00;63560.63;5027616;28;20021;-63
2023/06/09 02:52:21;;;;;;;6.97;3.70;;;;;;;-145.70;100.00;63560.63;5026505;28;20128;-64
2023/06/09 02:54:47;;;;;;;5.85;3.13;;;;;;;-145.70;100.00;63560.63;5022630;28;20021;-63
2023/06/09 02:57:13;;;;;;;6.25;3.10;;;;;;;-145.70;100.00;63560.63;5015625;28;20154;-64
2023/06/09 02:59:41;;;;;;;6.13;3.25;;;;;;;-145.70;100.00;63560.63;5024301;28;20019;-61
2023/06/09 03:02:06;;;;;;;5.80;3.15;;;;;;;-145.70;100.00;63560.63;5005034;28;20021;-63
2023/06/09 03:04:37;;;;;;;5.88;3.35;;;;;;;-145.70;100.00;63560.63;5018271;28;20017;-64
2023/06/09 03:07:04;;;;;;;5.97;3.22;;;;;;;-145.70;100.00;63560.63;5006715;28;20409;-63
2023/06/09 03:09:32;;;;;;;5.63;3.20;;;;;;;-145.70;100.00;63560.63;5015901;28;20021;-64
2023/06/09 03:11:57;;;;;;;6.97;3.33;;;;;;;-145.70;100.00;63560.63;5018070;28;20037;-63
2023/06/09 03:14:23;;;;;;;7.20;3.50;;;;;;;-145.70;100.00;63560.63;5013833;28;20036;-64
2023/06/09 03:16:48;;;;;;;6.30;3.50;;;;;;;-145.70;100.00;63560.63;4995781;28;20029;-63
2023/06/09 03:19:16;;;;;;;5.97;2.95;;;;;;;-145.70;100.00;63560.63;5028622;28;20021;-63
2023/06/09 03:21:43;;;;;;;6.35;3.08;;;;;;;-145.70;100.00;63560.63;5031971;28;20032;-64
2023/06/09 03:24:09;;;;;;;5.88;3.40;;;;;;;-145.70;100.00;63560.63;4989874;28;20136;-66
2023/06/09 03:26:34;;;;;;;5.28;2.88;;;;;;;-145.70;100.00;63560.63;4999617;28;20058;-63
2023/06/09 03:29:02;;;;;;;5.20;2.92;;;;;;;-145.70;100.00;63560.63;5024662;28;20138;-62
2023/06/09 03:31:30;;;;;;;6.68;3.53;;;;;;;-145.70;100.00;63560.63;5023411;28;20125;-65
2023/06/09 03:34:03;;;;;;;5.80;3.15;;;;;;;-145.70;100.00;63560.63;5013923;28;20531;-63
2023/06/09 03:36:33;;;;;;;5.80;3.15;;;;;;;-145.70;100.00;63560.63;5012718;28;20115;-63
2023/06/09 03:39:01;;;;;;;6.75;3.60;;;;;;;-145.70;100.00;63560.63;4999688;28;20156;-62
2023/06/09 03:41:31;;;;;;;6.03;3.22;;;;;;;-145.70;100.00;63560.63;5018655;28;20487;-64
2023/06/09 03:43:57;;;;;;;6.88;3.10;;;;;;;-145.70;100.00;63560.63;5015427;28;20087;-66
2023/06/09 03:46:22;;;;;;;6.13;3.17;;;;;;;-145.70;100.00;63560.63;5005621;28;20067;-65
2023/06/09 03:48:53;;;;;;;5.82;3.38;;;;;;;-145.70;100.00;63560.63;5014151;28;20029;-63
2023/06/09 03:51:19;;;;;;;5.72;2.92;;;;;;;-145.70;100.00;63560.63;5029411;28;20075;-63
2023/06/09 03:53:45;;;;;;;5.50;3.00;;;;;;;-145.70;100.00;63560.63;5023939;28;20032;-64
2023/06/09 03:56:14;;;;;;;6.18;3.05;;;;;;;-145.70;100.00;63560.63;5007899;28;20029;-65
2023/06/09 03:58:39;;;;;;;6.37;3.30;;;;;;;-145.70;100.00;63560.63;5030156;28;20116;-65
2023/06/09 04:01:10;;;;;;;5.57;3.40;;;;;;;-145.70;100.00;63560.63;5012094;28;20021;-63
2023/06/09 04:03:37;;;;;;;5.55;3.20;;;;;;;-145.70;100.00;63560.63;5027283;28;20170;-64
2023/06/09 04:06:03;;;;;;;6.60;3.47;;;;;;;-145.70;100.00;63560.63;5004443;28;20098;-65
2023/06/09 04:08:29;;;;;;;6.20;3.10;;;;;;;-145.70;100.00;63560.63;4998018;28;20045;-62
2023/06/09 04:10:54;;;;;;;6.90;3.17;;;;;;;-145.70;100.00;63560.63;4975679;28;20101;-67
2023/06/09 04:13:22;;;;;;;6.20;3.35;;;;;;;-145.70;100.00;63560.63;4976350;28;20141;-64
2023/06/09 04:15:48;;;;;;;6.20;3.28;;;;;;;-145.70;100.00;63560.63;4987020;28;20087;-64
2023/06/09 04:18:16;;;;;;;7.45;3.28;;;;;;;-145.70;100.00;63560.63;4975159;28;20026;-62
2023/06/09 04:20:41;;;;;;;5.63;3.05;;;;;;;-145.70;100.00;63560.63;4985193;28;20107;-65
2023/06/09 04:23:08;;;;;;;5.85;3.38;;;;;;;-145.70;100.00;63560.63;4974505;28;20014;-64
2023/06/09 04:25:35;;;;;;;5.90;3.22;;;;;;;-145.70;100.00;63560.63;4976131;28;20160;-62
2023/06/09 04:28:04;;;;;;;6.90;3.20;;;;;;;-145.70;100.00;63560.63;4986792;28;20030;-64
2023/06/09 04:30:34;;;;;;;5.45;2.92;;;;;;;-145.70;100.00;63560.63;4972642;28;20025;-63
2023/06/09 04:32:59;;;;;;;6.00;3.60;;;;;;;-145.70;100.00;63560.63;4981526;28;20045;-63
2023/06/09 04:35:25;;;;;;;5.05;2.78;;;;;;;-145.70;100.00;63560.63;5002841;28;20524;-65
2023/06/09 04:37:51;;;;;;;5.88;3.20;;;;;;;-145.70;100.00;63560.63;4986593;28;20026;-62
2023/06/09 04:40:25;;;;;;;6.30;3.30;;;;;;;-145.70;100.00;63560.63;4978827;28;20034;-63
2023/06/09 04:42:59;;;;;;;7.28;3.30;;;;;;;-145.70;100.00;63560.63;4978323;28;20542;-64
2023/06/09 04:45:28;;;;;;;7.20;3.40;;;;;;;-145.70;100.00;63560.63;4994583;28;20029;-64
2023/06/09 04:48:00;;;;;;;6.45;3.50;;;;;;;-145.70;100.00;63560.63;4976641;28;20044;-64
2023/06/09 04:50:30;;;;;;;5.38;3.13;;;;;;;-145.70;100.00;63560.63;4994571;28;20041;-67
2023/06/09 04:53:03;;;;;;;5.85;3.40;;;;;;;-145.70;100.00;63560.63;4988643;28;20026;-67
2023/06/09 04:55:29;;;;;;;5.82;3.25;;;;;;;-145.70;100.00;63560.63;4999492;28;20116;-64
2023/06/09 04:57:56;;;;;;;9.25;4.00;;;;;;;-145.70;100.00;63560.63;4979690;28;20038;-66
2023/06/09 05:00:29;;;;;;;5.85;3.20;;;;;;;-145.70;100.00;63560.63;4992270;28;20037;-61
2023/06/09 05:02:57;;;;;;;6.82;3.35;;;;;;;-145.70;100.00;63560.63;4991420;28;20033;-64
2023/06/09 05:05:23;;;;;;;6.15;3.10;;;;;;;-145.70;100.00;63560.63;4995659;28;20112;-65
2023/06/09 05:07:48;;;;;;;6.15;3.60;;;;;;;-145.70;100.00;63560.63;5013173;28;20089;-64
2023/06/09 05:10:16;;;;;;;5.25;3.05;;;;;;;-145.70;100.00;63560.63;5008340;28;20529;-61
2023/06/09 05:12:41;;;;;;;7.00;3.20;;;;;;;-145.70;100.00;63560.63;4978420;28;20079;-62
2023/06/09 05:15:09;;;;;;;6.13;3.20;;;;;;;-145.70;100.00;63560.63;5003958;28;20025;-65
2023/06/09 05:17:37;;;;;;;5.78;3.10;;;;;;;-145.70;100.00;63560.63;5025305;28;20025;-65
2023/06/09 05:20:07;;;;;;;5.75;3.30;;;;;;;-145.70;100.00;63560.63;4978270;28;20982;-63
2023/06/09 05:22:32;;;;;;;6.10;3.17;;;;;;;-145.70;100.00;63560.63;5005074;28;20290;-64
2023/06/09 05:24:58;;;;;;;6.00;3.28;;;;;;;-145.70;100.00;63560.63;5006181;28;20049;-65
2023/06/09 05:27:23;;;;;;;6.15;3.50;;;;;;;-145.70;100.00;63560.63;4960676;28;20486;-63
2023/06/09 05:29:51;;;;;;;6.28;3.28;;;;;;;-145.70;100.00;63560.63;5020860;28;20360;-64
2023/06/09 05:32:16;;;;;;;6.30;3.63;;;;;;;-145.70;100.00;63560.63;5026074;28;20036;-64
2023/06/09 05:34:44;;;;;;;5.55;2.97;;;;;;;-145.70;100.00;63560.63;5016084;28;20025;-64
2023/06/09 05:37:09;;;;;;;5.70;3.28;;;;;;;-145.70;100.00;63560.63;5009939;28;20048;-65
2023/06/09 05:39:34;;;;;;;6.10;3.60;;;;;;;-145.70;100.00;63560.63;5006724;28;20358;-63
2023/06/09 05:42:00;;;;;;;6.68;2.97;;;;;;;-145.70;100.00;63560.63;5014486;28;20029;-63
2023/06/09 05:44:26;;;;;;;6.80;3.40;;;;;;;-145.70;100.00;63560.63;4999285;28;20037;-66
2023/06/09 05:46:51;;;;;;;5.38;2.90;;;;;;;-145.70;100.00;63560.63;5011498;28;20036;-65
2023/06/09 05:49:19;;;;;;;6.38;3.03;;;;;;;-145.70;100.00;63560.63;5009227;28;20814;-63
2023/06/09 05:51:50;;;;;;;6.35;3.70;;;;;;;-145.70;100.00;63560.63;5024210;28;20041;-65
2023/06/09 05:54:16;;;;;;;5.75;3.20;;;;;;;-145.70;100.00;63560.63;4998748;28;20030;-66
2023/06/09 05:56:44;;;;;;;5.97;3.25;;;;;;;-145.70;100.00;63560.63;5006154;28;20024;-63
2023/06/09 05:59:10;;;;;;;7.22;3.28;;;;;;;-145.70;100.00;63560.63;4996930;28;20059;-62
2023/06/09 06:01:35;;;;;;;5.80;3.08;;;;;;;-145.70;100.00;63560.63;5007444;28;20112;-64
2023/06/09 06:04:01;;;;;;;7.15;3.40;;;;;;;-145.70;100.00;63560.63;5022360;28;20037;-64
2023/06/09 06:06:26;;;;;;;7.72;3.38;;;;;;;-145.70;100.00;63560.63;5008977;28;20045;-64
2023/06/09 06:08:52;;;;;;;6.03;3.22;;;;;;;-145.70;100.00;63560.63;5010392;28;20032;-65
2023/06/09 06:11:20;;;;;;;7.40;3.40;;;;;;;-145.70;100.00;63560.63;5028726;28;20025;-62
2023/06/09 06:13:46;;;;;;;5.27;3.10;;;;;;;-145.70;100.00;63560.63;5028228;28;20033;-65
2023/06/09 06:16:11;;;;;;;5.97;3.47;;;;;;;-145.70;100.00;63560.63;5000745;28;20040;-65
2023/06/09 06:18:36;;;;;;;6.65;3.47;;;;;;;-145.70;100.00;63560.63;4993654;28;20391;-65
2023/06/09 06:21:02;;;;;;;6.15;3.22;;;;;;;-145.70;100.00;63560.63;5011724;28;20028;-65
2023/06/09 06:23:28;;;;;;;7.00;3.13;;;;;;;-145.70;100.00;63560.63;5025618;28;20017;-64
2023/06/09 06:25:53;;;;;;;6.20;3.50;;;;;;;-145.70;100.00;63560.63;4996036;28;20040;-65
2023/06/09 06:28:19;;;;;;;5.60;2.95;;;;;;;-145.70;100.00;63560.63;5019726;28;20846;-62
2023/06/09 06:30:47;;;;;;;6.13;3.15;;;;;;;-145.70;100.00;63560.63;5005757;28;20483;-64
2023/06/09 06:33:13;;;;;;;6.90;3.20;;;;;;;-145.70;100.00;63560.63;5023626;28;20036;-66
2023/06/09 06:35:41;;;;;;;5.55;2.85;;;;;;;-145.70;100.00;63560.63;5017486;28;20060;-64
2023/06/09 06:38:09;;;;;;;6.80;3.33;;;;;;;-145.70;100.00;63560.63;5009755;28;20013;-64
2023/06/09 06:40:34;;;;;;;7.05;3.30;;;;;;;-145.70;100.00;63560.63;4993533;28;21243;-63
2023/06/09 06:42:59;;;;;;;5.95;3.17;;;;;;;-145.70;100.00;63560.63;5003663;28;20025;-64
2023/06/09 06:45:28;;;;;;;5.75;3.20;;;;;;;-145.70;100.00;63560.63;4996272;28;20025;-65
2023/06/09 06:47:56;;;;;;;6.30;3.40;;;;;;;-145.70;100.00;63560.63;5003934;28;20949;-64
2023/06/09 06:50:24;;;;;;;5.28;3.13;;;;;;;-145.70;100.00;63560.63;4983479;28;20043;-64
2023/06/09 06:52:50;;;;;;;5.85;3.03;;;;;;;-145.70;100.00;63560.63;5036396;28;20930;-65
2023/06/09 06:55:15;;;;;;;5.53;3.25;;;;;;;-145.70;100.00;63560.63;5001689;28;20468;-63
2023/06/09 06:57:40;;;;;;;5.18;2.88;;;;;;;-145.70;100.00;63560.63;5031218;28;20024;-64
2023/06/09 07:00:12;;;;;;;7.10;3.13;;;;;;;-145.70;100.00;63560.63;5006757;28;20430;-64
2023/06/09 07:02:38;;;;;;;6.65;3.42;;;;;;;-145.70;100.00;63560.63;5008873;28;20115;-65
2023/06/09 07:05:03;;;;;;;6.00;3.70;;;;;;;-145.70;100.00;63560.63;4995236;28;20059;-62
2023/06/09 07:07:31;;;;;;;5.25;3.05;;;;;;;-145.70;100.00;63560.63;4982643;28;20069;-65
2023/06/09 07:09:57;;;;;;;8.02;3.20;;;;;;;-145.70;100.00;63560.63;5021704;28;20048;-62
2023/06/09 07:12:22;;;;;;;6.63;3.20;;;;;;;-145.70;100.00;63560.63;5005850;28;20147;-61
2023/06/09 07:14:48;;;;;;;6.45;3.20;;;;;;;-145.70;100.00;63560.63;5031661;28;20025;-64
2023/06/09 07:17:15;;;;;;;6.20;3.05;;;;;;;-145.70;100.00;63560.63;5010456;28;20119;-63
2023/06/09 07:19:41;;;;;;;5.20;2.95;;;;;;;-145.70;100.00;63560.63;4999490;28;20036;-64
2023/06/09 07:22:06;;;;;;;6.35;3.40;;;;;;;-145.70;100.00;63560.63;5017692;28;20147;-63
2023/06/09 07:24:32;;;;;;;6.05;3.22;;;;;;;-145.70;100.00;63560.63;5016032;28;20542;-63
2023/06/09 07:27:02;;;;;;;7.35;3.22;;;;;;;-145.70;100.00;63560.63;5011846;28;20122;-60
2023/06/09 07:29:27;;;;;;;5.97;3.17;;;;;;;-145.70;100.00;63560.63;4997238;28;20047;-64
2023/06/09 07:31:53;;;;;;;5.57;3.10;;;;;;;-145.70;100.00;63560.63;5001134;28;20029;-60
2023/06/09 07:34:20;;;;;;;6.03;2.75;;;;;;;-145.70;100.00;63560.63;4996015;28;21245;-61
2023/06/09 07:36:50;;;;;;;5.50;3.08;;;;;;;-145.70;100.00;63560.63;5009124;28;20048;-61
2023/06/09 07:39:20;;;;;;;7.90;3.20;;;;;;;-145.70;100.00;63560.63;4984396;28;20026;-63
2023/06/09 07:41:45;;;;;;;;;;;;;;;-145.70;100.00;63560.63;5015619;28;20033;-62
2023/06/09 07:44:10;;;;;;;6.72;2.85;;;;;;;-145.70;100.00;63560.63;4999843;28;20535;-64
2023/06/09 07:46:36;;;;;;;5.85;2.90;;;;;;;-145.70;100.00;63560.63;4990336;28;20041;-61
2023/06/09 07:49:04;;;;;;;6.55;3.10;;;;;;;-145.70;100.00;63560.63;4998087;28;20044;-61
2023/06/09 07:51:29;;;;;;;6.43;3.17;;;;;;;-145.70;100.00;63560.63;4994079;28;20737;-62
2023/06/09 07:53:55;;;;;;;8.60;3.45;;;;;;;-145.70;100.00;63560.63;5020395;28;20116;-61
2023/06/09 07:56:20;;;;;;;6.20;2.92;;;;;;;-145.70;100.00;63560.63;4990082;28;20057;-64
2023/06/09 07:58:46;;;;;;;6.05;3.08;;;;;;;-145.70;100.00;63560.63;5020406;28;20021;-62
2023/06/09 08:01:12;;;;;;;5.40;3.25;;;;;;;-145.70;100.00;63560.63;4995161;28;20026;-61
2023/06/09 08:03:40;;;;;;;5.50;3.38;;;;;;;-145.70;100.00;63560.63;5004186;28;20655;-60
2023/06/09 08:06:08;;;;;;;5.40;3.17;;;;;;;-145.70;100.00;63560.63;5017017;28;20073;-63
2023/06/09 08:08:37;;;;;;;5.90;3.17;;;;;;;-145.70;100.00;63560.63;5002401;28;20024;-63
2023/06/09 08:11:05;;;;;;;5.40;2.95;;;;;;;-145.70;100.00;63560.63;5023739;28;20610;-61
2023/06/09 08:13:30;;;;;;;6.85;3.55;;;;;;;-145.70;100.00;63560.63;5020510;28;20111;-61
2023/06/09 08:15:55;;;;;;;5.50;3.30;;;;;;;-145.70;100.00;63560.63;5011358;28;20037;-61
2023/06/09 08:18:21;;;;;;;5.63;3.17;;;;;;;-145.70;100.00;63560.63;5002000;28;20029;-62
2023/06/09 08:20:47;;;;;;;6.85;3.83;;;;;;;-145.70;100.00;63560.63;5022704;28;20171;-61
2023/06/09 08:23:16;;;;;;;8.20;3.20;;;;;;;-145.70;100.00;63560.63;5003867;28;20021;-62
2023/06/09 08:25:41;;;;;;;7.37;3.97;;;;;;;-145.70;100.00;63560.63;5020895;28;20902;-62
2023/06/09 08:28:07;;;;;;;6.80;3.38;;;;;;;-145.70;100.00;63560.63;4987501;28;20295;-62
2023/06/09 08:30:34;;;;;;;5.95;3.60;;;;;;;-145.70;100.00;63560.63;5010363;28;20027;-61
2023/06/09 08:33:01;;;;;;;8.73;3.70;;;;;;;-145.70;100.00;63560.63;5001660;28;20120;-61
2023/06/09 08:35:31;;;;;;;6.82;3.15;;;;;;;-145.70;100.00;63560.63;5017675;28;20029;-61
2023/06/09 08:37:57;;;;;;;9.00;4.10;;;;;;;-145.70;100.00;63560.63;5020861;28;20190;-61
2023/06/09 08:40:23;;;;;;;6.88;4.15;;;;;;;-145.70;100.00;63560.63;5002071;28;20802;-61
2023/06/09 08:42:51;;;;;;;6.45;4.10;;;;;;;-145.70;100.00;63560.63;5001517;28;20040;-61
2023/06/09 08:45:20;;;;;;;6.50;4.27;;;;;;;-145.70;100.00;63560.63;5016355;28;20590;-61
2023/06/09 08:47:49;;;;;;;8.60;4.40;;;;;;;-145.70;100.00;63560.63;4997083;28;20371;-62
2023/06/09 08:50:18;;;;;;;7.22;4.00;;;;;;;-145.70;100.00;63560.63;5001965;28;20424;-61
2023/06/09 08:52:47;;;;;;;8.80;4.57;;;;;;;-145.70;100.00;63560.63;4999343;28;20340;-62
2023/06/09 08:55:13;;;;;;;6.82;4.20;;;;;;;-145.70;100.00;63560.63;5020377;28;20973;-61
2023/06/09 08:57:40;;;;;;;7.25;4.97;;;;;;;-145.70;100.00;63560.63;4993629;28;20029;-61
2023/06/09 09:00:11;;;;;;;9.43;4.35;;;;;;;-145.70;100.00;63560.63;5009097;28;20068;-61
2023/06/09 09:02:37;;;;;;;7.32;4.82;;;;;;;-145.70;100.00;63560.63;5012835;28;20045;-61
2023/06/09 09:05:02;;;;;;;6.68;4.57;;;;;;;-145.70;100.00;63560.63;5010191;28;20050;-61
2023/06/09 09:07:28;;;;;;;8.85;4.43;;;;;;;-145.70;100.00;63560.63;4991268;28;20111;-62
2023/06/09 09:09:54;;;;;;;6.88;4.25;;;;;;;-145.70;100.00;63560.63;5002489;28;20453;-61
2023/06/09 09:12:20;;;;;;;7.13;4.45;;;;;;;-145.70;100.00;63560.63;5001806;28;20036;-62
2023/06/09 09:14:46;;;;;;;5.95;4.13;;;;;;;-145.70;100.00;63560.63;5017770;28;20812;-61
2023/06/09 09:17:15;;;;;;;7.45;4.78;;;;;;;-145.70;100.00;63560.63;4998971;28;20017;-62
2023/06/09 09:19:47;;;;;;;7.33;4.17;;;;;;;-145.70;100.00;63560.63;5000552;28;20041;-61
2023/06/09 09:22:15;;;;;;;7.68;4.95;;;;;;;-145.70;100.00;63560.63;5002361;28;20041;-60
2023/06/09 09:24:43;;;;;;;8.75;4.93;;;;;;;-145.70;100.00;63560.63;5015321;28;20032;-62
2023/06/09 09:27:18;;;;;;;8.52;5.20;;;;;;;-145.70;100.00;63560.63;5016571;28;20128;-63
2023/06/09 09:29:47;;;;;;;7.75;4.30;;;;;;;-145.70;100.00;63560.63;4992062;28;20025;-60
2023/06/09 09:32:13;;;;;;;7.82;5.65;;;;;;;-145.70;100.00;63560.63;5001318;28;20033;-67
2023/06/09 09:34:46;;;;;;;8.40;5.80;;;;;;;-145.70;100.00;63560.63;5017979;28;20514;-59
2023/06/09 09:37:16;;;;;;;8.07;5.63;;;;;;;-145.70;100.00;63560.63;4998717;28;20022;-62
2023/06/09 09:39:52;;;;;;;10.25;6.05;;;;;;;-145.70;100.00;63560.63;5017534;28;20474;-62
2023/06/09 09:42:18;;;;;;;9.07;5.70;;;;;;;-145.70;100.00;63560.63;4983006;28;20037;-63
2023/06/09 09:44:46;;;;;;;10.00;6.57;;;;;;;-145.70;100.00;63560.63;5002397;28;20048;-62
2023/06/09 09:47:17;;;;;;;8.93;6.45;;;;;;;-145.70;100.00;63560.63;5015765;28;20033;-62
2023/06/09 09:49:50;;;;;;;8.85;6.18;;;;;;;-145.70;100.00;63560.63;5009266;28;20029;-60
2023/06/09 09:52:25;;;;;;;9.43;7.05;;;;;;;-145.70;100.00;63560.63;5015034;28;20036;-61
2023/06/09 09:55:04;;;;;;;11.10;7.47;;;;;;;-145.70;100.00;63560.63;4999979;28;20103;-61
2023/06/09 09:57:33;;;;;;;12.82;7.68;;;;;;;-145.70;100.00;63560.63;5000512;28;20519;-61
2023/06/09 10:00:11;;;;;;;9.43;7.28;;;;;;;-145.70;100.00;63560.63;5015589;28;20041;-61
2023/06/09 10:02:36;;;;;;;13.15;8.85;;;;;;;-145.70;100.00;63560.63;5007141;28;20976;-60
2023/06/09 10:05:05;;;;;;;12.52;9.23;;;;;;;-145.70;100.00;63560.63;4991163;28;20056;-64
2023/06/09 10:07:38;;;;;;;12.48;10.30;;;;;;;-145.70;100.00;63560.63;4996406;28;21369;-62
2023/06/09 10:10:03;;;;;;;11.55;9.38;;;;;;;-145.70;100.00;63560.63;5001545;28;20036;-61
2023/06/09 10:12:29;;;;;;;13.27;10.00;;;;;;;-145.70;100.00;63560.63;4984186;28;20056;-60
2023/06/09 10:14:56;;;;;;;15.35;10.82;;;;;;;-145.70;100.00;63560.63;4999760;28;20112;-63
2023/06/09 10:17:24;;;;;;;13.70;10.45;;;;;;;-145.70;100.00;63560.63;5000749;28;20037;-60
2023/06/09 10:19:55;;;;;;;13.55;10.32;;;;;;;-145.70;100.00;63560.63;4999702;28;20025;-60
2023/06/09 10:22:21;;;;;;;12.93;10.07;;;;;;;-145.70;100.00;63560.63;5020699;28;20147;-61
2023/06/09 10:24:47;;;;;;;13.00;9.98;;;;;;;-145.70;100.00;63560.63;4999964;28;20053;-62
2023/06/09 10:27:16;;;;;;;13.07;11.07;;;;;;;-145.70;100.00;63560.63;5015994;28;20066;-60
2023/06/09 10:29:42;;;;;;;14.20;10.43;;;;;;;-145.70;100.00;63560.63;5002873;28;20037;-62
2023/06/09 10:32:17;;;;;;;16.23;12.02;;;;;;;-145.70;100.00;63560.63;4987393;28;20112;-62
2023/06/09 10:34:46;;;;;;;14.65;11.43;;;;;;;-145.70;100.00;63560.63;5001558;28;20604;-63
2023/06/09 10:37:12;;;;;;;12.57;10.07;;;;;;;-145.70;100.00;63560.63;5017374;28;20104;-61
2023/06/09 10:39:51;;;;;;;12.15;9.75;;;;;;;-145.70;100.00;63560.63;5000921;28;20079;-61
2023/06/09 10:42:37;;;;;;;13.50;10.20;;;;;;;-145.70;100.00;63560.63;4982055;28;20056;-62
2023/06/09 10:45:17;;;;;;;13.43;10.48;;;;;;;-145.70;100.00;63560.63;4999500;28;20061;-61
2023/06/09 10:47:45;;;;;;;15.70;10.45;;;;;;;-145.70;100.00;63560.63;4999335;28;20034;-60
2023/06/09 10:50:27;;;;;;;15.30;11.43;;;;;;;-145.70;100.00;63560.63;4997042;28;20045;-60
2023/06/09 10:52:54;;;;;;;14.55;11.82;;;;;;;-145.70;100.00;63560.63;5003235;28;21009;-60
2023/06/09 10:55:22;;;;;;;15.82;13.43;;;;;;;-145.70;100.00;63560.63;4996835;28;20577;-63
2023/06/09 10:57:49;;;;;;;17.25;12.57;;;;;;;-145.70;100.00;63560.63;5001922;28;20032;-61
2023/06/09 11:00:15;;;;;;;17.98;15.27;;;;;;;-145.70;100.00;63560.63;5026803;28;20029;-63
2023/06/09 11:03:11;;;;;;;15.32;12.93;;;;;;;-145.70;100.00;63560.63;5016370;28;20226;-60
2023/06/09 11:05:43;;;;;;;16.48;13.50;;;;;;;-145.70;100.00;63560.63;5003193;28;20071;-61
2023/06/09 11:08:11;;;;;;;18.27;14.02;;;;;;;-145.70;100.00;63560.63;4962500;28;21084;-62
2023/06/09 11:10:37;;;;;;;18.05;14.45;;;;;;;-145.70;100.00;63560.63;5026876;28;20633;-62